Terminal Aerodrome Forecast
Issued by NWS Duluth, MN

Home | Current Version | Previous Version | Text Only | Print | Product List | Glossary On
Versions: 1 2 3 4 5 6 7 8 9 10 11 12 13 14 15 16
763
FTUS43 KDLH 241128
TAFDLH
TAF
KDLH 241128Z 2412/2512 14006KT 6SM -SHRA BR BKN040 OVC100
     FM241500 15007KT P6SM VCTS BKN100CB
     FM250800 21005KT P6SM BKN020 WS020/23035KT
     FM251100 21006KT P6SM BKN020=

USA.gov is the U.S. government's official web portal to all federal, state and local government web resources and services.